sensor_id;sensor_type;location;lat;lon;timestamp;temperature;humidity
7014;DHT22;3547;50.774;12.918;2023-03-12T00:01:35;-4.70;1.00
7014;DHT22;3547;50.774;12.918;2023-03-12T00:04:03;-4.70;1.40
7014;DHT22;3547;50.774;12.918;2023-03-12T00:06:30;-4.70;1.00
7014;DHT22;3547;50.774;12.918;2023-03-12T00:08:57;-4.80;1.00
7014;DHT22;3547;50.774;12.918;2023-03-12T00:11:27;-4.80;1.00
7014;DHT22;3547;50.774;12.918;2023-03-12T00:13:56;-4.80;1.00
7014;DHT22;3547;50.774;12.918;2023-03-12T00:16:26;-4.80;1.00
7014;DHT22;3547;50.774;12.918;2023-03-12T00:18:56;-4.80;1.00
7014;DHT22;3547;50.774;12.918;2023-03-12T00:21:22;-4.80;1.00
7014;DHT22;3547;50.774;12.918;2023-03-12T00:23:50;-4.90;1.00
7014;DHT22;3547;50.774;12.918;2023-03-12T00:26:18;-4.90;1.00
7014;DHT22;3547;50.774;12.918;2023-03-12T00:28:47;-4.80;1.00
7014;DHT22;3547;50.774;12.918;2023-03-12T00:31:21;-4.80;1.00
7014;DHT22;3547;50.774;12.918;2023-03-12T00:33:48;-4.90;1.00
7014;DHT22;3547;50.774;12.918;2023-03-12T00:36:18;-4.90;1.00
7014;DHT22;3547;50.774;12.918;2023-03-12T00:38:48;-4.90;1.00
7014;DHT22;3547;50.774;12.918;2023-03-12T00:41:15;-4.90;1.00
7014;DHT22;3547;50.774;12.918;2023-03-12T00:47:11;-5.00;1.00
7014;DHT22;3547;50.774;12.918;2023-03-12T00:49:37;-5.00;1.00
7014;DHT22;3547;50.774;12.918;2023-03-12T00:52:04;-4.90;1.00
7014;DHT22;3547;50.774;12.918;2023-03-12T00:54:31;-4.90;1.00
7014;DHT22;3547;50.774;12.918;2023-03-12T00:56:57;-4.90;1.00
7014;DHT22;3547;50.774;12.918;2023-03-12T00:59:24;-4.90;1.00
7014;DHT22;3547;50.774;12.918;2023-03-12T01:01:50;-4.90;1.00
7014;DHT22;3547;50.774;12.918;2023-03-12T01:04:17;-4.90;1.00
7014;DHT22;3547;50.774;12.918;2023-03-12T01:06:47;-4.90;1.00
7014;DHT22;3547;50.774;12.918;2023-03-12T01:09:14;-4.80;1.00
7014;DHT22;3547;50.774;12.918;2023-03-12T01:11:40;-4.90;1.00
7014;DHT22;3547;50.774;12.918;2023-03-12T01:17:29;-5.00;1.00
7014;DHT22;3547;50.774;12.918;2023-03-12T01:19:55;-4.90;1.00
7014;DHT22;3547;50.774;12.918;2023-03-12T01:22:21;-5.00;1.00
7014;DHT22;3547;50.774;12.918;2023-03-12T01:24:47;-5.00;1.00
7014;DHT22;3547;50.774;12.918;2023-03-12T01:27:13;-4.90;1.00
7014;DHT22;3547;50.774;12.918;2023-03-12T01:29:40;-4.90;1.00
7014;DHT22;3547;50.774;12.918;2023-03-12T01:32:06;-4.90;1.00
7014;DHT22;3547;50.774;12.918;2023-03-12T01:34:32;-5.00;1.00
7014;DHT22;3547;50.774;12.918;2023-03-12T01:37:00;-4.90;1.00
7014;DHT22;3547;50.774;12.918;2023-03-12T01:39:27;-5.00;1.00
7014;DHT22;3547;50.774;12.918;2023-03-12T01:41:55;-5.00;1.00
7014;DHT22;3547;50.774;12.918;2023-03-12T01:44:22;-5.00;1.00
7014;DHT22;3547;50.774;12.918;2023-03-12T01:46:48;-5.00;1.00
7014;DHT22;3547;50.774;12.918;2023-03-12T01:49:31;-5.00;1.00
7014;DHT22;3547;50.774;12.918;2023-03-12T01:52:04;-4.90;1.00
7014;DHT22;3547;50.774;12.918;2023-03-12T01:54:41;-4.90;1.00
7014;DHT22;3547;50.774;12.918;2023-03-12T01:57:16;-4.90;1.00
7014;DHT22;3547;50.774;12.918;2023-03-12T01:59:47;-4.90;1.00
7014;DHT22;3547;50.774;12.918;2023-03-12T02:02:15;-4.90;1.00
7014;DHT22;3547;50.774;12.918;2023-03-12T02:04:44;-4.90;1.00
7014;DHT22;3547;50.774;12.918;2023-03-12T02:07:13;-4.90;1.00
7014;DHT22;3547;50.774;12.918;2023-03-12T02:09:46;-4.90;1.00
7014;DHT22;3547;50.774;12.918;2023-03-12T02:12:14;-4.80;1.00
7014;DHT22;3547;50.774;12.918;2023-03-12T02:14:41;-4.90;1.00
7014;DHT22;3547;50.774;12.918;2023-03-12T02:17:08;-4.80;1.00
7014;DHT22;3547;50.774;12.918;2023-03-12T02:22:19;-4.80;1.00
7014;DHT22;3547;50.774;12.918;2023-03-12T02:27:22;-4.70;1.00
7014;DHT22;3547;50.774;12.918;2023-03-12T02:29:49;-4.80;1.00
7014;DHT22;3547;50.774;12.918;2023-03-12T02:32:28;-4.70;1.00
7014;DHT22;3547;50.774;12.918;2023-03-12T02:34:59;-4.70;1.00
7014;DHT22;3547;50.774;12.918;2023-03-12T02:37:26;-4.70;1.00
7014;DHT22;3547;50.774;12.918;2023-03-12T02:40:09;-4.80;1.00
7014;DHT22;3547;50.774;12.918;2023-03-12T02:42:38;-4.80;1.00
7014;DHT22;3547;50.774;12.918;2023-03-12T02:45:05;-4.80;1.00
7014;DHT22;3547;50.774;12.918;2023-03-12T02:47:31;-4.80;1.00
7014;DHT22;3547;50.774;12.918;2023-03-12T02:49:57;-4.80;1.00
7014;DHT22;3547;50.774;12.918;2023-03-12T02:52:23;-4.70;1.00
7014;DHT22;3547;50.774;12.918;2023-03-12T02:54:49;-4.70;1.00
7014;DHT22;3547;50.774;12.918;2023-03-12T02:57:16;-4.70;1.00
7014;DHT22;3547;50.774;12.918;2023-03-12T02:59:42;-4.70;1.00
7014;DHT22;3547;50.774;12.918;2023-03-12T03:02:09;-4.70;1.00
7014;DHT22;3547;50.774;12.918;2023-03-12T03:04:37;-4.70;1.00
7014;DHT22;3547;50.774;12.918;2023-03-12T03:07:03;-4.60;1.00
7014;DHT22;3547;50.774;12.918;2023-03-12T03:09:30;-4.70;1.00
7014;DHT22;3547;50.774;12.918;2023-03-12T03:11:56;-4.60;1.00
7014;DHT22;3547;50.774;12.918;2023-03-12T03:14:22;-4.70;1.00
7014;DHT22;3547;50.774;12.918;2023-03-12T03:16:48;-4.70;1.00
7014;DHT22;3547;50.774;12.918;2023-03-12T03:19:15;-4.70;1.00
7014;DHT22;3547;50.774;12.918;2023-03-12T03:21:41;-4.70;1.00
7014;DHT22;3547;50.774;12.918;2023-03-12T03:24:08;-4.70;1.00
7014;DHT22;3547;50.774;12.918;2023-03-12T03:26:35;-4.70;1.00
7014;DHT22;3547;50.774;12.918;2023-03-12T03:29:01;-4.80;1.00
7014;DHT22;3547;50.774;12.918;2023-03-12T03:31:27;-4.80;1.00
7014;DHT22;3547;50.774;12.918;2023-03-12T03:33:53;-4.80;1.00
7014;DHT22;3547;50.774;12.918;2023-03-12T03:36:20;-4.80;1.00
7014;DHT22;3547;50.774;12.918;2023-03-12T03:38:48;-4.80;1.00
7014;DHT22;3547;50.774;12.918;2023-03-12T03:41:15;-4.80;1.00
7014;DHT22;3547;50.774;12.918;2023-03-12T03:43:42;-4.80;1.00
7014;DHT22;3547;50.774;12.918;2023-03-12T03:46:10;-4.80;1.00
7014;DHT22;3547;50.774;12.918;2023-03-12T03:48:36;-4.80;1.00
7014;DHT22;3547;50.774;12.918;2023-03-12T03:51:05;-4.80;1.00
7014;DHT22;3547;50.774;12.918;2023-03-12T03:53:32;-4.80;1.00
7014;DHT22;3547;50.774;12.918;2023-03-12T03:59:21;-4.80;1.00
7014;DHT22;3547;50.774;12.918;2023-03-12T04:01:48;-4.80;1.00
7014;DHT22;3547;50.774;12.918;2023-03-12T04:04:14;-4.80;1.00
7014;DHT22;3547;50.774;12.918;2023-03-12T04:06:40;-4.80;1.00
7014;DHT22;3547;50.774;12.918;2023-03-12T04:09:06;-4.80;1.00
7014;DHT22;3547;50.774;12.918;2023-03-12T04:11:32;-4.80;1.00
7014;DHT22;3547;50.774;12.918;2023-03-12T04:13:58;-4.80;1.00
7014;DHT22;3547;50.774;12.918;2023-03-12T04:16:25;-4.80;1.00
7014;DHT22;3547;50.774;12.918;2023-03-12T04:18:51;-4.90;1.00
7014;DHT22;3547;50.774;12.918;2023-03-12T04:21:17;-4.90;1.00
7014;DHT22;3547;50.774;12.918;2023-03-12T04:23:44;-5.00;1.00
7014;DHT22;3547;50.774;12.918;2023-03-12T04:26:10;-5.00;1.00
7014;DHT22;3547;50.774;12.918;2023-03-12T04:28:37;-5.00;1.00
7014;DHT22;3547;50.774;12.918;2023-03-12T04:31:05;-5.10;1.00
7014;DHT22;3547;50.774;12.918;2023-03-12T04:33:38;-5.10;1.00
7014;DHT22;3547;50.774;12.918;2023-03-12T04:36:05;-5.10;1.00
7014;DHT22;3547;50.774;12.918;2023-03-12T04:38:32;-5.10;1.00
7014;DHT22;3547;50.774;12.918;2023-03-12T04:40:59;-5.10;1.00
7014;DHT22;3547;50.774;12.918;2023-03-12T04:43:27;-5.10;1.00
7014;DHT22;3547;50.774;12.918;2023-03-12T04:45:54;-5.10;1.00
7014;DHT22;3547;50.774;12.918;2023-03-12T04:48:20;-5.10;1.00
7014;DHT22;3547;50.774;12.918;2023-03-12T04:50:47;-5.10;1.00
7014;DHT22;3547;50.774;12.918;2023-03-12T04:53:13;-5.10;1.00
7014;DHT22;3547;50.774;12.918;2023-03-12T04:55:39;-5.10;1.00
7014;DHT22;3547;50.774;12.918;2023-03-12T04:58:05;-5.10;1.00
7014;DHT22;3547;50.774;12.918;2023-03-12T05:00:31;-5.00;1.00
7014;DHT22;3547;50.774;12.918;2023-03-12T05:02:58;-5.10;1.00
7014;DHT22;3547;50.774;12.918;2023-03-12T05:05:24;-5.10;1.00
7014;DHT22;3547;50.774;12.918;2023-03-12T05:07:50;-5.10;1.00
7014;DHT22;3547;50.774;12.918;2023-03-12T05:10:16;-5.20;1.00
7014;DHT22;3547;50.774;12.918;2023-03-12T05:12:42;-5.20;1.00
7014;DHT22;3547;50.774;12.918;2023-03-12T05:15:09;-5.20;1.00
7014;DHT22;3547;50.774;12.918;2023-03-12T05:17:35;-5.30;1.00
7014;DHT22;3547;50.774;12.918;2023-03-12T05:20:01;-5.20;1.00
7014;DHT22;3547;50.774;12.918;2023-03-12T05:22:27;-5.20;1.00
7014;DHT22;3547;50.774;12.918;2023-03-12T05:24:53;-5.30;1.00
7014;DHT22;3547;50.774;12.918;2023-03-12T05:27:19;-5.20;1.00
7014;DHT22;3547;50.774;12.918;2023-03-12T05:29:45;-5.10;1.00
7014;DHT22;3547;50.774;12.918;2023-03-12T05:32:12;-5.00;1.00
7014;DHT22;3547;50.774;12.918;2023-03-12T05:34:38;-5.00;1.00
7014;DHT22;3547;50.774;12.918;2023-03-12T05:37:04;-4.90;1.00
7014;DHT22;3547;50.774;12.918;2023-03-12T05:39:30;-4.90;1.00
7014;DHT22;3547;50.774;12.918;2023-03-12T05:41:56;-4.80;1.00
7014;DHT22;3547;50.774;12.918;2023-03-12T05:44:23;-4.80;1.00
7014;DHT22;3547;50.774;12.918;2023-03-12T05:46:50;-4.70;1.00
7014;DHT22;3547;50.774;12.918;2023-03-12T05:49:16;-4.70;1.00
7014;DHT22;3547;50.774;12.918;2023-03-12T05:51:42;-4.60;1.00
7014;DHT22;3547;50.774;12.918;2023-03-12T05:54:09;-4.50;1.00
7014;DHT22;3547;50.774;12.918;2023-03-12T05:56:36;-4.50;1.00
7014;DHT22;3547;50.774;12.918;2023-03-12T05:59:02;-4.40;1.00
7014;DHT22;3547;50.774;12.918;2023-03-12T06:01:30;-4.30;1.00
7014;DHT22;3547;50.774;12.918;2023-03-12T06:03:57;-4.30;1.00
7014;DHT22;3547;50.774;12.918;2023-03-12T06:06:23;-4.20;1.00
7014;DHT22;3547;50.774;12.918;2023-03-12T06:08:50;-4.20;1.00
7014;DHT22;3547;50.774;12.918;2023-03-12T06:11:17;-4.10;1.00
7014;DHT22;3547;50.774;12.918;2023-03-12T06:13:43;-4.00;1.00
7014;DHT22;3547;50.774;12.918;2023-03-12T06:16:19;-3.90;1.00
7014;DHT22;3547;50.774;12.918;2023-03-12T06:18:46;-3.90;1.00
7014;DHT22;3547;50.774;12.918;2023-03-12T06:21:18;-3.80;1.00
7014;DHT22;3547;50.774;12.918;2023-03-12T06:23:46;-3.70;1.00
7014;DHT22;3547;50.774;12.918;2023-03-12T06:26:12;-3.70;1.00
7014;DHT22;3547;50.774;12.918;2023-03-12T06:28:39;-3.60;1.00
7014;DHT22;3547;50.774;12.918;2023-03-12T06:31:06;-3.50;1.00
7014;DHT22;3547;50.774;12.918;2023-03-12T06:33:32;-3.50;1.00
7014;DHT22;3547;50.774;12.918;2023-03-12T06:36:00;-3.40;1.00
7014;DHT22;3547;50.774;12.918;2023-03-12T06:38:28;-3.40;1.00
7014;DHT22;3547;50.774;12.918;2023-03-12T06:41:02;-3.30;1.00
7014;DHT22;3547;50.774;12.918;2023-03-12T06:43:31;-3.30;1.00
7014;DHT22;3547;50.774;12.918;2023-03-12T06:45:59;-3.30;1.00
7014;DHT22;3547;50.774;12.918;2023-03-12T06:48:30;-3.20;1.00
7014;DHT22;3547;50.774;12.918;2023-03-12T06:51:00;-3.10;1.00
7014;DHT22;3547;50.774;12.918;2023-03-12T06:53:50;-3.10;1.00
7014;DHT22;3547;50.774;12.918;2023-03-12T08:32:59;1.30;52.30
7014;DHT22;3547;50.774;12.918;2023-03-12T08:35:30;1.70;77.60
7014;DHT22;3547;50.774;12.918;2023-03-12T08:56:59;3.90;99.90
7014;DHT22;3547;50.774;12.918;2023-03-12T09:04:37;4.30;99.90
7014;DHT22;3547;50.774;12.918;2023-03-12T09:07:08;4.50;94.50
7014;DHT22;3547;50.774;12.918;2023-03-12T09:09:34;4.40;98.00
7014;DHT22;3547;50.774;12.918;2023-03-12T09:12:01;4.30;90.00
7014;DHT22;3547;50.774;12.918;2023-03-12T09:14:27;4.10;69.70
7014;DHT22;3547;50.774;12.918;2023-03-12T09:16:53;3.90;93.10
7014;DHT22;3547;50.774;12.918;2023-03-12T09:19:19;3.90;78.70
7014;DHT22;3547;50.774;12.918;2023-03-12T09:21:46;4.10;97.40
7014;DHT22;3547;50.774;12.918;2023-03-12T09:24:12;4.30;99.90
7014;DHT22;3547;50.774;12.918;2023-03-12T09:26:38;4.70;99.90
7014;DHT22;3547;50.774;12.918;2023-03-12T09:29:04;4.60;76.50
7014;DHT22;3547;50.774;12.918;2023-03-12T09:31:31;5.00;99.90
7014;DHT22;3547;50.774;12.918;2023-03-12T09:34:00;5.20;96.90
7014;DHT22;3547;50.774;12.918;2023-03-12T09:36:27;5.20;99.90
7014;DHT22;3547;50.774;12.918;2023-03-12T09:38:54;5.70;99.90
7014;DHT22;3547;50.774;12.918;2023-03-12T09:41:24;5.60;87.10
7014;DHT22;3547;50.774;12.918;2023-03-12T09:44:15;5.70;99.90
7014;DHT22;3547;50.774;12.918;2023-03-12T09:49:45;5.70;94.70
7014;DHT22;3547;50.774;12.918;2023-03-12T09:55:20;6.40;99.90
7014;DHT22;3547;50.774;12.918;2023-03-12T09:57:49;6.40;94.00
7014;DHT22;3547;50.774;12.918;2023-03-12T10:00:39;6.30;99.90
7014;DHT22;3547;50.774;12.918;2023-03-12T10:19:37;6.00;98.50
7014;DHT22;3547;50.774;12.918;2023-03-12T10:27:34;7.00;91.80
7014;DHT22;3547;50.774;12.918;2023-03-12T10:30:17;7.20;98.80
7014;DHT22;3547;50.774;12.918;2023-03-12T10:33:00;7.50;98.20
7014;DHT22;3547;50.774;12.918;2023-03-12T10:35:29;7.80;92.00
7014;DHT22;3547;50.774;12.918;2023-03-12T10:37:58;7.10;67.30
7014;DHT22;3547;50.774;12.918;2023-03-12T10:40:30;6.50;76.10
7014;DHT22;3547;50.774;12.918;2023-03-12T10:42:59;6.10;58.50
7014;DHT22;3547;50.774;12.918;2023-03-12T10:48:27;6.30;78.60
7014;DHT22;3547;50.774;12.918;2023-03-12T10:51:05;6.70;68.90
7014;DHT22;3547;50.774;12.918;2023-03-12T10:53:34;6.40;52.70
7014;DHT22;3547;50.774;12.918;2023-03-12T10:56:04;6.60;72.60
7014;DHT22;3547;50.774;12.918;2023-03-12T10:58:38;6.70;63.00
7014;DHT22;3547;50.774;12.918;2023-03-12T11:01:29;6.80;68.60
7014;DHT22;3547;50.774;12.918;2023-03-12T11:04:15;6.80;74.40
7014;DHT22;3547;50.774;12.918;2023-03-12T11:09:39;7.40;84.60
7014;DHT22;3547;50.774;12.918;2023-03-12T11:12:28;7.20;80.00
7014;DHT22;3547;50.774;12.918;2023-03-12T11:14:59;7.00;52.40
7014;DHT22;3547;50.774;12.918;2023-03-12T11:17:42;6.80;46.30
7014;DHT22;3547;50.774;12.918;2023-03-12T11:22:49;7.30;55.00
7014;DHT22;3547;50.774;12.918;2023-03-12T12:13:31;7.10;24.70
7014;DHT22;3547;50.774;12.918;2023-03-12T12:16:34;7.30;19.70
7014;DHT22;3547;50.774;12.918;2023-03-12T12:36:14;8.00;21.90
7014;DHT22;3547;50.774;12.918;2023-03-12T12:38:54;7.70;17.00
7014;DHT22;3547;50.774;12.918;2023-03-12T12:54:20;6.40;1.00
7014;DHT22;3547;50.774;12.918;2023-03-12T13:01:54;6.20;2.70
7014;DHT22;3547;50.774;12.918;2023-03-12T13:04:38;6.10;6.30
7014;DHT22;3547;50.774;12.918;2023-03-12T13:09:52;5.90;1.00
7014;DHT22;3547;50.774;12.918;2023-03-12T13:18:17;6.00;1.00
7014;DHT22;3547;50.774;12.918;2023-03-12T13:21:14;5.70;1.00
7014;DHT22;3547;50.774;12.918;2023-03-12T13:26:25;5.50;1.00
7014;DHT22;3547;50.774;12.918;2023-03-12T13:34:14;5.10;1.00
7014;DHT22;3547;50.774;12.918;2023-03-12T13:48:02;5.30;15.40
7014;DHT22;3547;50.774;12.918;2023-03-12T13:50:30;5.30;8.30
7014;DHT22;3547;50.774;12.918;2023-03-12T13:53:07;5.50;8.30
7014;DHT22;3547;50.774;12.918;2023-03-12T13:55:42;5.30;3.80
7014;DHT22;3547;50.774;12.918;2023-03-12T13:58:27;5.40;10.90
7014;DHT22;3547;50.774;12.918;2023-03-12T14:01:07;5.10;5.80
7014;DHT22;3547;50.774;12.918;2023-03-12T14:03:41;5.00;10.80
7014;DHT22;3547;50.774;12.918;2023-03-12T14:10:10;5.00;14.60
7014;DHT22;3547;50.774;12.918;2023-03-12T14:15:26;5.10;33.80
7014;DHT22;3547;50.774;12.918;2023-03-12T14:17:56;5.10;27.40
7014;DHT22;3547;50.774;12.918;2023-03-12T14:20:23;5.10;24.60
7014;DHT22;3547;50.774;12.918;2023-03-12T14:23:01;5.10;29.60
7014;DHT22;3547;50.774;12.918;2023-03-12T14:25:38;5.00;29.30
7014;DHT22;3547;50.774;12.918;2023-03-12T14:28:13;4.90;26.20
7014;DHT22;3547;50.774;12.918;2023-03-12T14:31:11;4.70;26.70
7014;DHT22;3547;50.774;12.918;2023-03-12T14:34:01;4.70;29.40
7014;DHT22;3547;50.774;12.918;2023-03-12T14:36:54;4.80;34.90
7014;DHT22;3547;50.774;12.918;2023-03-12T14:39:32;4.70;41.50
7014;DHT22;3547;50.774;12.918;2023-03-12T14:42:04;4.70;41.70
7014;DHT22;3547;50.774;12.918;2023-03-12T14:44:33;4.80;53.50
7014;DHT22;3547;50.774;12.918;2023-03-12T14:47:05;4.70;45.50
7014;DHT22;3547;50.774;12.918;2023-03-12T14:49:43;4.60;47.90
7014;DHT22;3547;50.774;12.918;2023-03-12T14:52:19;4.40;46.10
7014;DHT22;3547;50.774;12.918;2023-03-12T14:55:03;4.40;50.60
7014;DHT22;3547;50.774;12.918;2023-03-12T14:58:16;4.40;55.60
7014;DHT22;3547;50.774;12.918;2023-03-12T15:00:44;4.30;54.30
7014;DHT22;3547;50.774;12.918;2023-03-12T15:03:28;4.20;53.80
7014;DHT22;3547;50.774;12.918;2023-03-12T15:05:55;4.10;68.00
7014;DHT22;3547;50.774;12.918;2023-03-12T15:08:22;4.20;82.60
7014;DHT22;3547;50.774;12.918;2023-03-12T15:10:58;4.10;88.80
7014;DHT22;3547;50.774;12.918;2023-03-12T15:13:26;4.10;91.00
7014;DHT22;3547;50.774;12.918;2023-03-12T15:15:53;4.10;93.30
7014;DHT22;3547;50.774;12.918;2023-03-12T15:18:31;4.10;92.70
7014;DHT22;3547;50.774;12.918;2023-03-12T15:21:00;4.20;96.60
7014;DHT22;3547;50.774;12.918;2023-03-12T15:23:29;4.20;98.30
7014;DHT22;3547;50.774;12.918;2023-03-12T15:26:14;4.30;99.90
7014;DHT22;3547;50.774;12.918;2023-03-12T15:28:42;4.30;99.90
7014;DHT22;3547;50.774;12.918;2023-03-12T15:31:12;4.30;99.90
7014;DHT22;3547;50.774;12.918;2023-03-12T15:33:41;4.20;99.90
7014;DHT22;3547;50.774;12.918;2023-03-12T15:38:45;4.20;99.90
7014;DHT22;3547;50.774;12.918;2023-03-12T15:44:26;4.20;99.90
7014;DHT22;3547;50.774;12.918;2023-03-12T15:46:56;4.30;99.90
7014;DHT22;3547;50.774;12.918;2023-03-12T15:49:33;4.20;99.90
7014;DHT22;3547;50.774;12.918;2023-03-12T15:58:34;4.10;99.90
7014;DHT22;3547;50.774;12.918;2023-03-12T16:01:14;4.10;99.90
7014;DHT22;3547;50.774;12.918;2023-03-12T16:06:24;4.10;99.90
7014;DHT22;3547;50.774;12.918;2023-03-12T16:08:57;4.10;99.90
7014;DHT22;3547;50.774;12.918;2023-03-12T16:11:29;4.00;99.90
7014;DHT22;3547;50.774;12.918;2023-03-12T16:14:28;4.10;99.90
7014;DHT22;3547;50.774;12.918;2023-03-12T16:16:56;4.10;99.90
7014;DHT22;3547;50.774;12.918;2023-03-12T16:19:22;4.10;99.90
7014;DHT22;3547;50.774;12.918;2023-03-12T16:21:49;4.10;99.90
7014;DHT22;3547;50.774;12.918;2023-03-12T16:24:15;4.10;99.90
7014;DHT22;3547;50.774;12.918;2023-03-12T16:26:48;4.10;99.90
7014;DHT22;3547;50.774;12.918;2023-03-12T16:29:16;4.20;99.90
7014;DHT22;3547;50.774;12.918;2023-03-12T16:31:43;4.10;99.90
7014;DHT22;3547;50.774;12.918;2023-03-12T16:34:10;4.10;99.90
7014;DHT22;3547;50.774;12.918;2023-03-12T16:39:52;4.10;99.90
7014;DHT22;3547;50.774;12.918;2023-03-12T16:42:22;4.10;99.90
7014;DHT22;3547;50.774;12.918;2023-03-12T16:44:50;4.10;99.90
7014;DHT22;3547;50.774;12.918;2023-03-12T16:47:19;4.10;99.90
7014;DHT22;3547;50.774;12.918;2023-03-12T16:49:45;4.10;99.90
7014;DHT22;3547;50.774;12.918;2023-03-12T16:52:21;4.10;99.90
7014;DHT22;3547;50.774;12.918;2023-03-12T16:54:48;4.10;99.90
7014;DHT22;3547;50.774;12.918;2023-03-12T16:57:43;4.10;99.90
7014;DHT22;3547;50.774;12.918;2023-03-12T17:00:13;4.20;99.90
7014;DHT22;3547;50.774;12.918;2023-03-12T17:02:44;4.10;99.90
7014;DHT22;3547;50.774;12.918;2023-03-12T17:05:11;4.20;99.90
7014;DHT22;3547;50.774;12.918;2023-03-12T17:07:37;4.20;99.90
7014;DHT22;3547;50.774;12.918;2023-03-12T17:10:04;4.20;99.90
7014;DHT22;3547;50.774;12.918;2023-03-12T17:12:36;4.20;99.90
7014;DHT22;3547;50.774;12.918;2023-03-12T17:15:27;4.20;99.90
7014;DHT22;3547;50.774;12.918;2023-03-12T17:18:17;4.30;99.90
7014;DHT22;3547;50.774;12.918;2023-03-12T17:20:46;4.30;99.90
7014;DHT22;3547;50.774;12.918;2023-03-12T17:23:12;4.30;99.90
7014;DHT22;3547;50.774;12.918;2023-03-12T17:25:41;4.30;99.90
7014;DHT22;3547;50.774;12.918;2023-03-12T17:28:08;4.40;99.90
7014;DHT22;3547;50.774;12.918;2023-03-12T17:30:35;4.40;99.90
7014;DHT22;3547;50.774;12.918;2023-03-12T17:33:10;4.30;99.90
7014;DHT22;3547;50.774;12.918;2023-03-12T17:35:37;4.40;99.90
7014;DHT22;3547;50.774;12.918;2023-03-12T17:38:04;4.30;99.90
7014;DHT22;3547;50.774;12.918;2023-03-12T17:40:30;4.40;99.90
7014;DHT22;3547;50.774;12.918;2023-03-12T17:42:58;4.40;99.90
7014;DHT22;3547;50.774;12.918;2023-03-12T17:45:27;4.40;99.90
7014;DHT22;3547;50.774;12.918;2023-03-12T17:47:53;4.40;99.90
7014;DHT22;3547;50.774;12.918;2023-03-12T17:50:20;4.40;99.90
7014;DHT22;3547;50.774;12.918;2023-03-12T17:52:46;4.50;99.90
7014;DHT22;3547;50.774;12.918;2023-03-12T17:55:12;4.50;99.90
7014;DHT22;3547;50.774;12.918;2023-03-12T17:57:38;4.50;99.90
7014;DHT22;3547;50.774;12.918;2023-03-12T18:00:13;4.50;99.90
7014;DHT22;3547;50.774;12.918;2023-03-12T18:02:42;4.60;1.00
7014;DHT22;3547;50.774;12.918;2023-03-12T18:05:09;4.50;1.00
7014;DHT22;3547;50.774;12.918;2023-03-12T18:07:41;4.60;1.00
7014;DHT22;3547;50.774;12.918;2023-03-12T18:10:09;4.60;1.00
7014;DHT22;3547;50.774;12.918;2023-03-12T18:12:39;4.60;1.00
7014;DHT22;3547;50.774;12.918;2023-03-12T18:15:10;4.60;1.00
7014;DHT22;3547;50.774;12.918;2023-03-12T18:17:40;4.70;1.00
7014;DHT22;3547;50.774;12.918;2023-03-12T18:20:07;4.70;1.00
7014;DHT22;3547;50.774;12.918;2023-03-12T18:22:40;4.70;1.00
7014;DHT22;3547;50.774;12.918;2023-03-12T18:25:08;4.70;1.00
7014;DHT22;3547;50.774;12.918;2023-03-12T18:27:35;4.70;1.00
7014;DHT22;3547;50.774;12.918;2023-03-12T18:30:02;4.80;1.00
7014;DHT22;3547;50.774;12.918;2023-03-12T18:32:31;4.70;1.00
7014;DHT22;3547;50.774;12.918;2023-03-12T18:43:09;4.80;1.00
7014;DHT22;3547;50.774;12.918;2023-03-12T18:45:58;4.80;1.00
7014;DHT22;3547;50.774;12.918;2023-03-12T18:48:24;4.80;1.00
7014;DHT22;3547;50.774;12.918;2023-03-12T18:50:51;4.80;1.00
7014;DHT22;3547;50.774;12.918;2023-03-12T18:53:22;4.80;1.00
7014;DHT22;3547;50.774;12.918;2023-03-12T18:55:52;4.90;1.00
7014;DHT22;3547;50.774;12.918;2023-03-12T18:58:20;4.90;1.00
7014;DHT22;3547;50.774;12.918;2023-03-12T19:00:49;4.90;1.00
7014;DHT22;3547;50.774;12.918;2023-03-12T19:03:15;5.00;1.00
7014;DHT22;3547;50.774;12.918;2023-03-12T19:05:41;5.00;1.00
7014;DHT22;3547;50.774;12.918;2023-03-12T19:08:14;5.00;1.00
7014;DHT22;3547;50.774;12.918;2023-03-12T19:10:41;5.00;1.00
7014;DHT22;3547;50.774;12.918;2023-03-12T19:13:09;5.10;1.00
7014;DHT22;3547;50.774;12.918;2023-03-12T19:15:37;5.10;1.00
7014;DHT22;3547;50.774;12.918;2023-03-12T19:18:05;5.10;1.00
7014;DHT22;3547;50.774;12.918;2023-03-12T19:20:31;5.10;1.00
7014;DHT22;3547;50.774;12.918;2023-03-12T19:22:57;5.20;1.00
7014;DHT22;3547;50.774;12.918;2023-03-12T19:25:24;5.20;1.00
7014;DHT22;3547;50.774;12.918;2023-03-12T19:27:50;5.30;1.00
7014;DHT22;3547;50.774;12.918;2023-03-12T19:30:17;5.30;1.00
7014;DHT22;3547;50.774;12.918;2023-03-12T19:32:43;5.30;1.00
7014;DHT22;3547;50.774;12.918;2023-03-12T19:35:13;5.30;1.00
7014;DHT22;3547;50.774;12.918;2023-03-12T19:41:08;5.40;1.00
7014;DHT22;3547;50.774;12.918;2023-03-12T19:43:36;5.50;1.00
7014;DHT22;3547;50.774;12.918;2023-03-12T19:46:21;5.50;1.00
7014;DHT22;3547;50.774;12.918;2023-03-12T19:48:48;5.50;1.00
7014;DHT22;3547;50.774;12.918;2023-03-12T19:51:14;5.60;1.00
7014;DHT22;3547;50.774;12.918;2023-03-12T19:53:41;5.60;1.00
7014;DHT22;3547;50.774;12.918;2023-03-12T19:56:07;5.60;1.00
7014;DHT22;3547;50.774;12.918;2023-03-12T19:58:33;5.60;1.00
7014;DHT22;3547;50.774;12.918;2023-03-12T20:01:00;5.60;1.00
7014;DHT22;3547;50.774;12.918;2023-03-12T20:03:27;5.60;1.00
7014;DHT22;3547;50.774;12.918;2023-03-12T20:05:55;5.60;1.00
7014;DHT22;3547;50.774;12.918;2023-03-12T20:08:23;5.60;1.00
7014;DHT22;3547;50.774;12.918;2023-03-12T20:11:04;5.60;1.00
7014;DHT22;3547;50.774;12.918;2023-03-12T20:13:32;5.60;1.00
7014;DHT22;3547;50.774;12.918;2023-03-12T20:18:37;5.70;1.00
7014;DHT22;3547;50.774;12.918;2023-03-12T20:26:22;5.80;1.00
7014;DHT22;3547;50.774;12.918;2023-03-12T20:29:17;5.80;1.00
7014;DHT22;3547;50.774;12.918;2023-03-12T20:34:15;5.80;1.00
7014;DHT22;3547;50.774;12.918;2023-03-12T20:39:56;5.80;1.00
7014;DHT22;3547;50.774;12.918;2023-03-12T20:42:22;5.80;1.00
7014;DHT22;3547;50.774;12.918;2023-03-12T20:45:05;5.80;1.00
7014;DHT22;3547;50.774;12.918;2023-03-12T20:47:32;5.80;1.00
7014;DHT22;3547;50.774;12.918;2023-03-12T20:50:12;5.80;1.00
7014;DHT22;3547;50.774;12.918;2023-03-12T20:52:38;5.80;1.00
7014;DHT22;3547;50.774;12.918;2023-03-12T20:55:13;5.80;1.00
7014;DHT22;3547;50.774;12.918;2023-03-12T20:57:39;5.80;1.00
7014;DHT22;3547;50.774;12.918;2023-03-12T21:05:17;5.90;1.00
7014;DHT22;3547;50.774;12.918;2023-03-12T21:12:54;6.10;1.00
7014;DHT22;3547;50.774;12.918;2023-03-12T21:15:21;6.10;1.00
7014;DHT22;3547;50.774;12.918;2023-03-12T21:17:47;6.10;1.00
7014;DHT22;3547;50.774;12.918;2023-03-12T21:20:13;6.20;1.00
7014;DHT22;3547;50.774;12.918;2023-03-12T21:22:42;6.20;1.00
7014;DHT22;3547;50.774;12.918;2023-03-12T21:25:09;6.30;1.00
7014;DHT22;3547;50.774;12.918;2023-03-12T21:30:11;6.30;1.00
7014;DHT22;3547;50.774;12.918;2023-03-12T21:40:35;6.50;1.00
7014;DHT22;3547;50.774;12.918;2023-03-12T21:45:37;6.50;1.00
7014;DHT22;3547;50.774;12.918;2023-03-12T21:48:07;6.60;1.00
7014;DHT22;3547;50.774;12.918;2023-03-12T21:50:33;6.60;1.00
7014;DHT22;3547;50.774;12.918;2023-03-12T21:52:59;6.60;1.00
7014;DHT22;3547;50.774;12.918;2023-03-12T21:55:25;6.60;1.00
7014;DHT22;3547;50.774;12.918;2023-03-12T21:57:54;6.50;1.00
7014;DHT22;3547;50.774;12.918;2023-03-12T22:08:23;6.70;1.00
7014;DHT22;3547;50.774;12.918;2023-03-12T22:10:50;6.70;1.00
7014;DHT22;3547;50.774;12.918;2023-03-12T22:13:16;6.70;1.00
7014;DHT22;3547;50.774;12.918;2023-03-12T22:23:30;6.90;1.00
7014;DHT22;3547;50.774;12.918;2023-03-12T22:26:01;7.00;1.00
7014;DHT22;3547;50.774;12.918;2023-03-12T22:28:37;6.90;1.00
7014;DHT22;3547;50.774;12.918;2023-03-12T22:52:33;7.00;1.00
7014;DHT22;3547;50.774;12.918;2023-03-12T22:54:59;7.10;1.00
7014;DHT22;3547;50.774;12.918;2023-03-12T22:57:26;7.20;1.00